Time;durP1;ratioP1;P1;durP2;ratioP2;P2;SDS_P1;SDS_P2;PMS_P1;PMS_P2;Temp;Humidity;BMP_temperature;BMP_pressure;BME280_temperature;BME280_humidity;BME280_pressure;Samples;Min_cycle;Max_cycle;Signal;HPM_P1;HPM_P2
2021/10/04 00:01:38;;;;;;;17.33;3.10;;;;;17.00;100333.00;;;;5068270;28;20052;-80
2021/10/04 00:04:08;;;;;;;13.98;2.65;;;;;17.00;100338.00;;;;5069213;28;20046;-85
2021/10/04 00:06:37;;;;;;;11.05;2.65;;;;;17.00;100345.00;;;;5068664;28;20048;-80
2021/10/04 00:09:07;;;;;;;15.45;2.90;;;;;16.90;100341.00;;;;5068181;28;20050;-81
2021/10/04 00:11:36;;;;;;;13.65;2.83;;;;;16.90;100353.00;;;;5068721;28;20090;-81
2021/10/04 00:14:06;;;;;;;14.00;2.92;;;;;16.90;100340.00;;;;5069096;28;20094;-79
2021/10/04 00:16:37;;;;;;;11.90;2.63;;;;;16.90;100350.00;;;;5076332;28;20075;-77
2021/10/04 00:19:06;;;;;;;14.82;2.78;;;;;16.90;100352.00;;;;5070621;28;20044;-80
2021/10/04 00:21:36;;;;;;;12.57;2.53;;;;;16.90;100347.00;;;;5068449;28;20074;-79
2021/10/04 00:24:05;;;;;;;12.23;2.53;;;;;16.80;100356.00;;;;5072565;28;20048;-81
2021/10/04 00:26:35;;;;;;;12.15;3.10;;;;;16.80;100338.00;;;;5087993;28;20502;-81
2021/10/04 00:29:04;;;;;;;13.25;2.85;;;;;16.80;100348.00;;;;5087070;28;20131;-77
2021/10/04 00:31:34;;;;;;;11.57;2.47;;;;;16.80;100369.00;;;;5088785;28;20052;-77
2021/10/04 00:34:04;;;;;;;17.70;3.72;;;;;16.70;100363.00;;;;5088079;28;20679;-78
2021/10/04 00:36:34;;;;;;;10.68;2.92;;;;;16.70;100353.00;;;;5088488;28;20040;-79
2021/10/04 00:39:04;;;;;;;12.30;2.58;;;;;16.70;100361.00;;;;5088160;28;20465;-78
2021/10/04 00:41:33;;;;;;;11.18;2.50;;;;;16.60;100365.00;;;;5088870;28;20059;-78
2021/10/04 00:44:03;;;;;;;14.07;2.60;;;;;16.60;100368.00;;;;5087969;28;20047;-80
2021/10/04 00:46:32;;;;;;;11.05;2.78;;;;;16.60;100367.00;;;;5088307;28;20581;-78
2021/10/04 00:49:03;;;;;;;10.55;2.55;;;;;16.60;100357.00;;;;5088380;28;20052;-81
2021/10/04 00:51:32;;;;;;;17.58;3.00;;;;;16.50;100349.00;;;;5087221;28;20048;-78
2021/10/04 00:54:03;;;;;;;11.35;2.70;;;;;16.50;100349.00;;;;5087559;28;20585;-79
2021/10/04 00:56:32;;;;;;;13.90;3.28;;;;;16.50;100351.00;;;;5088097;28;20048;-79
2021/10/04 00:59:02;;;;;;;13.43;3.17;;;;;16.50;100337.00;;;;5088209;28;20059;-79
2021/10/04 01:01:32;;;;;;;16.98;3.35;;;;;16.50;100335.00;;;;5088371;28;20051;-79
2021/10/04 01:04:02;;;;;;;16.13;3.08;;;;;16.40;100334.00;;;;5087753;28;20079;-80
2021/10/04 01:06:31;;;;;;;12.52;2.90;;;;;16.40;100335.00;;;;5087700;28;20036;-78
2021/10/04 01:09:01;;;;;;;13.80;2.92;;;;;16.40;100320.00;;;;5087762;28;20048;-78
2021/10/04 01:11:30;;;;;;;15.18;3.03;;;;;16.30;100326.00;;;;5087505;28;20048;-79
2021/10/04 01:13:59;;;;;;;11.88;2.58;;;;;16.30;100350.00;;;;5087660;28;20048;-79
2021/10/04 01:16:29;;;;;;;15.73;2.38;;;;;16.30;100348.00;;;;5087715;28;20620;-78
2021/10/04 01:18:58;;;;;;;14.52;2.58;;;;;16.30;100348.00;;;;5087022;28;20079;-78
2021/10/04 01:21:28;;;;;;;12.43;2.85;;;;;16.30;100349.00;;;;5087447;28;20556;-78
2021/10/04 01:23:57;;;;;;;14.65;2.95;;;;;16.30;100359.00;;;;5085695;28;20044;-77
2021/10/04 01:26:27;;;;;;;13.52;2.63;;;;;16.30;100351.00;;;;5067632;28;20565;-78
2021/10/04 01:28:56;;;;;;;15.35;2.75;;;;;16.20;100350.00;;;;5066958;28;20044;-79
2021/10/04 01:31:26;;;;;;;12.82;2.47;;;;;16.30;100351.00;;;;5067593;28;20115;-77
2021/10/04 01:33:57;;;;;;;17.25;2.45;;;;;16.30;100362.00;;;;5066838;28;20044;-79
2021/10/04 01:36:27;;;;;;;13.13;3.42;;;;;16.40;100357.00;;;;5067090;28;20044;-77
2021/10/04 01:38:58;;;;;;;17.65;2.92;;;;;16.30;100351.00;;;;5066725;28;20064;-78
2021/10/04 01:41:27;;;;;;;24.92;3.63;;;;;16.30;100366.00;;;;5067123;28;20052;-78
2021/10/04 01:43:57;;;;;;;18.50;3.22;;;;;16.30;100358.00;;;;5066973;28;20049;-78
2021/10/04 01:46:26;;;;;;;15.10;2.60;;;;;16.30;100376.00;;;;5066546;28;20051;-78
2021/10/04 01:48:56;;;;;;;16.67;2.30;;;;;16.20;100373.00;;;;5067610;28;20578;-78
2021/10/04 01:51:25;;;;;;;15.57;3.05;;;;;16.20;100384.00;;;;5067455;28;20044;-79
2021/10/04 01:53:55;;;;;;;15.20;3.28;;;;;16.20;100368.00;;;;5065508;28;20068;-77
2021/10/04 01:56:24;;;;;;;18.30;3.28;;;;;16.20;100364.00;;;;5065966;28;20044;-77
2021/10/04 01:58:53;;;;;;;16.63;2.92;;;;;16.20;100376.00;;;;5065062;28;20049;-78
2021/10/04 02:01:23;;;;;;;11.15;2.50;;;;;16.20;100379.00;;;;5065414;28;20566;-77
2021/10/04 02:03:54;;;;;;;16.17;2.97;;;;;16.10;100389.00;;;;5066643;28;20048;-77
2021/10/04 02:06:24;;;;;;;12.85;2.83;;;;;16.10;100385.00;;;;5066355;28;20037;-78
2021/10/04 02:08:53;;;;;;;15.30;3.05;;;;;16.10;100404.00;;;;5066491;28;20040;-78
2021/10/04 02:11:23;;;;;;;15.88;2.50;;;;;16.10;100406.00;;;;5066238;28;20522;-76
2021/10/04 02:13:52;;;;;;;17.25;3.35;;;;;16.10;100408.00;;;;5066853;28;20056;-77
2021/10/04 02:16:22;;;;;;;24.02;3.08;;;;;16.10;100410.00;;;;5066542;28;20490;-77
2021/10/04 02:18:51;;;;;;;17.15;2.70;;;;;16.00;100413.00;;;;5066664;28;20036;-78
2021/10/04 02:21:21;;;;;;;13.82;2.85;;;;;16.00;100403.00;;;;5066152;28;20505;-78
2021/10/04 02:23:50;;;;;;;17.35;3.40;;;;;16.00;100403.00;;;;5068103;28;20523;-76
2021/10/04 02:26:19;;;;;;;19.38;2.97;;;;;16.00;100412.00;;;;5086638;28;20048;-77
2021/10/04 02:28:50;;;;;;;12.73;2.70;;;;;15.90;100397.00;;;;5086656;28;20067;-78
2021/10/04 02:31:19;;;;;;;12.93;2.35;;;;;15.90;100412.00;;;;5086595;28;20495;-76
2021/10/04 02:33:48;;;;;;;11.27;2.53;;;;;15.90;100414.00;;;;5086260;28;20392;-77
2021/10/04 02:36:23;;;;;;;10.55;2.42;;;;;15.90;100405.00;;;;5087088;28;20503;-76
2021/10/04 02:38:53;;;;;;;13.88;2.80;;;;;15.90;100416.00;;;;5086244;28;20059;-78
2021/10/04 02:41:22;;;;;;;15.63;2.63;;;;;15.80;100396.00;;;;5086449;28;20067;-77
2021/10/04 02:43:52;;;;;;;15.10;2.63;;;;;15.80;100396.00;;;;5086528;28;20490;-78
2021/10/04 02:46:22;;;;;;;16.35;3.10;;;;;15.80;100398.00;;;;5085877;28;20043;-77
2021/10/04 02:48:52;;;;;;;14.70;2.17;;;;;15.80;100390.00;;;;5086705;28;20048;-77
2021/10/04 02:51:22;;;;;;;10.30;2.67;;;;;15.80;100381.00;;;;5090777;28;20067;-77
2021/10/04 02:53:51;;;;;;;15.13;3.03;;;;;15.80;100392.00;;;;5090394;28;20392;-76
2021/10/04 02:56:21;;;;;;;16.98;2.63;;;;;15.80;100388.00;;;;5072770;28;20051;-77
2021/10/04 02:58:51;;;;;;;13.73;2.58;;;;;15.80;100391.00;;;;5090949;28;20433;-77
2021/10/04 03:01:20;;;;;;;19.75;3.63;;;;;15.70;100385.00;;;;5090718;28;20051;-77
2021/10/04 03:03:49;;;;;;;12.00;2.72;;;;;15.80;100395.00;;;;5090079;28;20044;-78
2021/10/04 03:06:19;;;;;;;15.15;3.05;;;;;15.70;100398.00;;;;5090251;28;20044;-77
2021/10/04 03:08:48;;;;;;;14.75;2.50;;;;;15.70;100409.00;;;;5090171;28;20061;-77
2021/10/04 03:11:19;;;;;;;15.05;3.38;;;;;15.60;100390.00;;;;5089786;28;20055;-78
2021/10/04 03:13:48;;;;;;;12.30;2.30;;;;;15.70;100400.00;;;;5090083;28;20052;-78
2021/10/04 03:16:20;;;;;;;13.85;2.35;;;;;15.70;100393.00;;;;5090481;28;20506;-77
2021/10/04 03:18:49;;;;;;;15.05;2.50;;;;;15.70;100392.00;;;;5090505;28;20040;-76
2021/10/04 03:21:19;;;;;;;10.20;2.35;;;;;15.60;100392.00;;;;5090653;28;20203;-77
2021/10/04 03:23:49;;;;;;;12.85;2.45;;;;;15.60;100380.00;;;;5088388;28;20055;-77
2021/10/04 03:26:18;;;;;;;16.08;3.00;;;;;15.60;100385.00;;;;5089414;28;20047;-76
2021/10/04 03:28:48;;;;;;;14.20;2.75;;;;;15.60;100380.00;;;;5089350;28;20048;-76
2021/10/04 03:31:17;;;;;;;13.55;2.78;;;;;15.60;100403.00;;;;5089804;28;20040;-77
2021/10/04 03:33:47;;;;;;;20.98;3.15;;;;;15.60;100371.00;;;;5089446;28;20055;-78
2021/10/04 03:36:16;;;;;;;17.80;2.75;;;;;15.50;100391.00;;;;5089304;28;20094;-77
2021/10/04 03:38:46;;;;;;;13.20;2.45;;;;;15.50;100385.00;;;;5089179;28;20135;-77
2021/10/04 03:41:15;;;;;;;15.02;2.33;;;;;15.50;100383.00;;;;5090071;28;20044;-76
2021/10/04 03:43:44;;;;;;;17.38;3.05;;;;;15.60;100376.00;;;;5089530;28;20047;-77
2021/10/04 03:46:14;;;;;;;16.73;2.85;;;;;15.60;100375.00;;;;5089910;28;20521;-76
2021/10/04 03:48:43;;;;;;;14.02;2.25;;;;;15.60;100394.00;;;;5089102;28;20076;-76
2021/10/04 03:51:13;;;;;;;15.23;2.92;;;;;15.50;100375.00;;;;5089422;28;20048;-77
2021/10/04 03:53:42;;;;;;;13.43;2.88;;;;;15.50;100385.00;;;;5089371;28;20109;-77
2021/10/04 03:56:12;;;;;;;17.20;3.13;;;;;15.50;100388.00;;;;5089251;28;20494;-78
2021/10/04 03:58:42;;;;;;;17.33;2.90;;;;;15.50;100387.00;;;;5089457;28;20093;-76
2021/10/04 04:01:12;;;;;;;19.15;3.50;;;;;15.40;100394.00;;;;5088654;28;20036;-76
2021/10/04 04:03:41;;;;;;;17.50;2.97;;;;;15.50;100401.00;;;;5088897;28;20508;-77
2021/10/04 04:06:12;;;;;;;19.92;2.63;;;;;15.40;100395.00;;;;5089423;28;20392;-76
2021/10/04 04:08:41;;;;;;;16.08;2.25;;;;;15.40;100417.00;;;;5089348;28;20048;-76
2021/10/04 04:11:11;;;;;;;15.70;2.20;;;;;15.50;100426.00;;;;5089600;28;20439;-77
2021/10/04 04:13:40;;;;;;;11.40;2.15;;;;;15.50;100405.00;;;;5088405;28;20070;-77
2021/10/04 04:16:10;;;;;;;18.52;2.67;;;;;15.50;100416.00;;;;5089042;28;20036;-76
2021/10/04 04:18:39;;;;;;;17.50;2.65;;;;;15.40;100422.00;;;;5088909;28;20537;-77
2021/10/04 04:21:09;;;;;;;17.58;3.08;;;;;15.40;100407.00;;;;5086816;28;20105;-77
2021/10/04 04:23:38;;;;;;;21.75;3.08;;;;;15.30;100414.00;;;;5088625;28;20085;-77
2021/10/04 04:26:08;;;;;;;14.63;2.75;;;;;15.40;100398.00;;;;5067979;28;20538;-76
2021/10/04 04:28:38;;;;;;;15.95;3.50;;;;;15.30;100403.00;;;;5068377;28;20048;-77
2021/10/04 04:31:08;;;;;;;18.17;2.35;;;;;15.30;100405.00;;;;5069268;28;20052;-77
2021/10/04 04:33:37;;;;;;;17.75;2.55;;;;;15.30;100410.00;;;;5068758;28;20109;-78
2021/10/04 04:36:07;;;;;;;19.05;2.60;;;;;15.30;100413.00;;;;5068763;28;20496;-77
2021/10/04 04:38:38;;;;;;;12.65;2.58;;;;;15.30;100392.00;;;;5066522;28;20061;-77
2021/10/04 04:41:07;;;;;;;15.30;2.85;;;;;15.30;100420.00;;;;5068025;28;20128;-76
2021/10/04 04:43:38;;;;;;;18.40;3.03;;;;;15.30;100401.00;;;;5067966;28;20676;-77
2021/10/04 04:46:07;;;;;;;;;;;;;15.30;100410.00;;;;5068884;28;20047;-79
2021/10/04 04:48:37;;;;;;;19.10;2.83;;;;;15.30;100392.00;;;;5067893;28;20229;-77
2021/10/04 04:51:07;;;;;;;9.13;1.95;;;;;15.30;100402.00;;;;5067560;28;20093;-78
2021/10/04 04:53:36;;;;;;;13.55;2.45;;;;;15.20;100381.00;;;;5067368;28;20507;-78
2021/10/04 04:56:06;;;;;;;16.20;2.38;;;;;15.30;100403.00;;;;5067733;28;20041;-77
2021/10/04 04:58:36;;;;;;;16.67;2.75;;;;;15.20;100399.00;;;;5067849;28;20504;-77
2021/10/04 05:01:06;;;;;;;20.35;2.55;;;;;15.20;100415.00;;;;5067565;28;20048;-76
2021/10/04 05:03:35;;;;;;;9.73;2.50;;;;;15.20;100429.00;;;;5067342;28;20087;-77
2021/10/04 05:06:05;;;;;;;13.45;2.95;;;;;15.20;100448.00;;;;5067774;28;20515;-76
2021/10/04 05:08:35;;;;;;;15.75;2.83;;;;;15.20;100449.00;;;;5067630;28;20040;-76
2021/10/04 05:11:04;;;;;;;10.40;2.00;;;;;15.20;100458.00;;;;5067824;28;20049;-78
2021/10/04 05:13:34;;;;;;;16.08;3.42;;;;;15.20;100449.00;;;;5066889;28;20044;-78
2021/10/04 05:16:03;;;;;;;17.00;2.80;;;;;15.10;100442.00;;;;5067400;28;20051;-78
2021/10/04 05:18:33;;;;;;;10.88;2.20;;;;;15.10;100446.00;;;;5067481;28;20117;-77
2021/10/04 05:21:04;;;;;;;12.13;2.03;;;;;15.00;100453.00;;;;5065886;28;20098;-77
2021/10/04 05:23:34;;;;;;;12.10;2.40;;;;;15.00;100443.00;;;;5066975;28;20048;-78
2021/10/04 05:26:04;;;;;;;14.27;2.50;;;;;15.00;100438.00;;;;5067231;28;20055;-76
2021/10/04 05:28:33;;;;;;;13.75;2.53;;;;;15.00;100457.00;;;;5066723;28;20078;-77
2021/10/04 05:31:03;;;;;;;19.42;2.83;;;;;15.00;100450.00;;;;5067564;28;20048;-77
2021/10/04 05:33:32;;;;;;;14.43;2.28;;;;;15.00;100449.00;;;;5067404;28;20114;-77
2021/10/04 05:36:02;;;;;;;10.50;2.20;;;;;15.00;100467.00;;;;5067104;28;20080;-78
2021/10/04 05:38:32;;;;;;;12.23;2.13;;;;;14.90;100465.00;;;;5067340;28;20064;-79
2021/10/04 05:41:01;;;;;;;14.05;2.38;;;;;15.00;100467.00;;;;5067139;28;20048;-78
2021/10/04 05:43:32;;;;;;;10.25;2.30;;;;;15.00;100450.00;;;;5066854;28;20044;-77
2021/10/04 05:46:03;;;;;;;21.15;2.78;;;;;15.00;100432.00;;;;5066920;28;20072;-79
2021/10/04 05:48:33;;;;;;;12.15;2.60;;;;;14.90;100406.00;;;;5066701;28;20045;-77
2021/10/04 05:51:02;;;;;;;14.13;2.50;;;;;14.90;100415.00;;;;5066454;28;20506;-78
2021/10/04 05:53:34;;;;;;;17.60;2.55;;;;;14.90;100421.00;;;;5067080;28;20407;-78
2021/10/04 05:56:04;;;;;;;17.40;2.83;;;;;15.00;100414.00;;;;5066717;28;20123;-77
2021/10/04 05:58:34;;;;;;;15.57;2.63;;;;;15.00;100403.00;;;;5066395;28;20048;-77
2021/10/04 06:01:03;;;;;;;16.55;2.60;;;;;14.90;100414.00;;;;5067185;28;20084;-78
2021/10/04 06:03:33;;;;;;;13.00;2.15;;;;;14.90;100409.00;;;;5066909;28;21076;-76
2021/10/04 06:06:02;;;;;;;17.48;3.30;;;;;14.90;100408.00;;;;5066784;28;20048;-77
2021/10/04 06:08:32;;;;;;;16.42;2.55;;;;;14.90;100407.00;;;;5066725;28;20515;-77
2021/10/04 06:11:01;;;;;;;17.52;2.30;;;;;14.90;100425.00;;;;5066843;28;20048;-78
2021/10/04 06:13:30;;;;;;;12.30;2.20;;;;;14.80;100443.00;;;;5066531;28;20048;-77
2021/10/04 06:16:00;;;;;;;13.23;2.58;;;;;14.80;100460.00;;;;5066309;28;20047;-77
2021/10/04 06:18:29;;;;;;;12.23;2.22;;;;;14.80;100467.00;;;;5066814;28;20048;-77
2021/10/04 06:20:59;;;;;;;12.48;2.40;;;;;14.80;100476.00;;;;5066306;28;20098;-77
2021/10/04 06:23:28;;;;;;;12.70;1.98;;;;;14.80;100484.00;;;;5065939;28;20047;-76
2021/10/04 06:25:58;;;;;;;16.00;2.35;;;;;14.70;100488.00;;;;5086778;28;20047;-77
2021/10/04 06:28:27;;;;;;;14.18;2.00;;;;;14.70;100512.00;;;;5086571;28;20043;-75
2021/10/04 06:30:57;;;;;;;17.40;2.55;;;;;14.70;100520.00;;;;5085238;28;20044;-77
2021/10/04 06:33:26;;;;;;;15.50;2.28;;;;;14.70;100510.00;;;;5086342;28;20090;-76
2021/10/04 06:35:55;;;;;;;15.02;2.35;;;;;14.70;100506.00;;;;5085313;28;20048;-77
2021/10/04 06:38:25;;;;;;;19.85;2.30;;;;;14.60;100493.00;;;;5086467;28;20081;-77
2021/10/04 06:40:55;;;;;;;17.30;2.20;;;;;14.60;100493.00;;;;5086383;28;20048;-77
2021/10/04 06:43:25;;;;;;;13.40;2.05;;;;;14.50;100490.00;;;;5086278;28;20036;-77
2021/10/04 06:45:54;;;;;;;15.55;2.63;;;;;14.50;100466.00;;;;5086023;28;20054;-76
2021/10/04 06:48:24;;;;;;;12.15;2.33;;;;;14.50;100469.00;;;;5087109;28;20076;-76
2021/10/04 06:50:53;;;;;;;13.88;2.42;;;;;14.50;100473.00;;;;5085365;28;20051;-77
2021/10/04 06:53:22;;;;;;;15.45;2.50;;;;;14.50;100477.00;;;;5086549;28;20078;-75
2021/10/04 06:55:56;;;;;;;12.00;2.00;;;;;14.50;100477.00;;;;5086577;28;20044;-77
2021/10/04 06:58:26;;;;;;;14.52;2.67;;;;;14.40;100505.00;;;;5085766;28;20036;-77
2021/10/04 07:00:55;;;;;;;20.73;2.75;;;;;14.40;100502.00;;;;5086078;28;20074;-78
2021/10/04 07:03:25;;;;;;;10.45;2.00;;;;;14.40;100506.00;;;;5086028;28;20043;-77
2021/10/04 07:05:55;;;;;;;16.63;2.38;;;;;14.40;100520.00;;;;5086365;28;20040;-77
2021/10/04 07:08:25;;;;;;;17.10;2.63;;;;;14.40;100510.00;;;;5086420;28;20032;-76
2021/10/04 07:10:55;;;;;;;15.98;1.95;;;;;14.30;100487.00;;;;5086491;28;20032;-76
2021/10/04 07:13:24;;;;;;;15.52;2.72;;;;;14.30;100495.00;;;;5086048;28;20085;-76
2021/10/04 07:15:54;;;;;;;11.05;1.98;;;;;14.30;100505.00;;;;5085134;28;20047;-77
2021/10/04 07:18:23;;;;;;;17.77;1.90;;;;;14.30;100522.00;;;;5086368;28;20040;-77
2021/10/04 07:20:52;;;;;;;15.25;2.13;;;;;14.30;100533.00;;;;5084384;28;20052;-77
2021/10/04 07:23:22;;;;;;;14.75;1.90;;;;;14.30;100536.00;;;;5086051;28;20040;-76
2021/10/04 07:25:52;;;;;;;17.75;2.53;;;;;14.30;100537.00;;;;5085611;28;20051;-77
2021/10/04 07:28:21;;;;;;;17.70;2.30;;;;;14.30;100540.00;;;;5086005;28;20440;-77
2021/10/04 07:30:51;;;;;;;15.95;2.33;;;;;14.40;100550.00;;;;5085077;28;20464;-78
2021/10/04 07:33:20;;;;;;;12.38;2.22;;;;;14.40;100536.00;;;;5086598;28;20417;-78
2021/10/04 07:35:51;;;;;;;19.10;2.67;;;;;14.40;100545.00;;;;5087555;28;20090;-77
2021/10/04 07:38:20;;;;;;;20.38;2.25;;;;;14.40;100546.00;;;;5090223;28;20536;-77
2021/10/04 07:40:50;;;;;;;13.98;2.30;;;;;14.30;100547.00;;;;5089367;28;20074;-77
2021/10/04 07:43:19;;;;;;;19.33;2.65;;;;;14.30;100568.00;;;;5089705;28;20040;-77
2021/10/04 07:45:49;;;;;;;13.32;1.60;;;;;14.30;100562.00;;;;5089779;28;20048;-76
2021/10/04 07:48:18;;;;;;;14.55;2.10;;;;;14.20;100544.00;;;;5089558;28;20486;-77
2021/10/04 07:50:48;;;;;;;20.58;2.38;;;;;14.30;100550.00;;;;5089359;28;20093;-78
2021/10/04 07:53:17;;;;;;;12.73;1.95;;;;;14.30;100553.00;;;;5089413;28;20035;-78
2021/10/04 07:55:47;;;;;;;14.32;2.80;;;;;14.30;100577.00;;;;5088847;28;20048;-77
2021/10/04 07:58:16;;;;;;;18.85;2.70;;;;;14.30;100586.00;;;;5089528;28;20478;-77
2021/10/04 08:00:45;;;;;;;14.88;2.40;;;;;14.30;100583.00;;;;5089466;28;20044;-76
2021/10/04 08:03:15;;;;;;;12.55;2.30;;;;;14.30;100578.00;;;;5089388;28;20050;-77
2021/10/04 08:05:44;;;;;;;13.32;2.35;;;;;14.20;100597.00;;;;5089159;28;20200;-76
2021/10/04 08:08:14;;;;;;;16.45;2.85;;;;;14.20;100599.00;;;;5088747;28;20040;-78
2021/10/04 08:10:43;;;;;;;18.52;2.50;;;;;14.20;100602.00;;;;5088031;28;20541;-76
2021/10/04 08:13:13;;;;;;;12.85;2.45;;;;;14.20;100587.00;;;;5089005;28;20684;-76
2021/10/04 08:15:43;;;;;;;12.10;2.08;;;;;14.20;100592.00;;;;5089025;28;20039;-77
2021/10/04 08:18:12;;;;;;;12.82;2.15;;;;;14.20;100582.00;;;;5089446;28;20051;-77
2021/10/04 08:20:41;;;;;;;14.73;1.88;;;;;14.20;100589.00;;;;5087557;28;20047;-77
2021/10/04 08:23:13;;;;;;;19.48;2.20;;;;;14.20;100578.00;;;;5088837;28;20406;-76
2021/10/04 08:25:43;;;;;;;12.05;1.90;;;;;14.10;100578.00;;;;5070448;28;20451;-78
2021/10/04 08:28:12;;;;;;;17.50;2.25;;;;;14.20;100566.00;;;;5068517;28;20040;-77
2021/10/04 08:30:42;;;;;;;15.98;2.28;;;;;14.20;100578.00;;;;5068420;28;20040;-77
2021/10/04 08:33:11;;;;;;;17.45;2.85;;;;;14.20;100588.00;;;;5068016;28;20054;-77
2021/10/04 08:35:41;;;;;;;16.05;2.45;;;;;14.20;100589.00;;;;5068050;28;20123;-77
2021/10/04 08:38:11;;;;;;;14.18;1.98;;;;;14.20;100608.00;;;;5068049;28;20048;-78
2021/10/04 08:40:41;;;;;;;19.80;2.28;;;;;14.10;100602.00;;;;5068781;28;20041;-76
2021/10/04 08:43:10;;;;;;;13.98;2.08;;;;;14.10;100603.00;;;;5069159;28;20079;-76
2021/10/04 08:45:41;;;;;;;15.85;2.15;;;;;14.10;100605.00;;;;5067076;28;20052;-77
2021/10/04 08:48:11;;;;;;;16.95;3.35;;;;;14.10;100614.00;;;;5068379;28;20490;-77
2021/10/04 08:50:41;;;;;;;15.13;1.63;;;;;14.10;100617.00;;;;5068163;28;20734;-78
2021/10/04 08:53:11;;;;;;;12.35;2.30;;;;;14.10;100608.00;;;;5068302;28;20052;-78
2021/10/04 08:55:40;;;;;;;14.80;2.38;;;;;14.10;100610.00;;;;5068125;28;20044;-77
2021/10/04 08:58:11;;;;;;;15.95;2.75;;;;;14.10;100589.00;;;;5068283;28;20049;-77
2021/10/04 09:00:40;;;;;;;;;;;;;14.20;100608.00;;;;5068531;28;20041;-77
2021/10/04 09:03:12;;;;;;;17.13;2.97;;;;;14.20;100604.00;;;;5068079;28;19920;-77
2021/10/04 09:05:47;;;;;;;17.45;2.63;;;;;14.20;100615.00;;;;5067760;28;20040;-78
2021/10/04 09:08:16;;;;;;;15.32;2.15;;;;;14.20;100626.00;;;;5067388;28;20040;-77
2021/10/04 09:10:49;;;;;;;16.95;2.20;;;;;14.20;100650.00;;;;5067624;28;20040;-77
2021/10/04 09:13:19;;;;;;;13.98;2.63;;;;;14.30;100669.00;;;;5067562;28;20044;-78
2021/10/04 09:15:51;;;;;;;12.95;1.88;;;;;14.30;100668.00;;;;5067306;28;20079;-78
2021/10/04 09:18:31;;;;;;;15.48;2.53;;;;;14.20;100670.00;;;;5067416;28;20191;-77
2021/10/04 09:21:03;;;;;;;15.43;2.67;;;;;14.20;100671.00;;;;5067222;28;20906;-78
2021/10/04 09:23:49;;;;;;;16.65;2.67;;;;;14.20;100678.00;;;;5067007;28;20521;-78
2021/10/04 09:26:30;;;;;;;11.75;2.22;;;;;14.20;100682.00;;;;5066796;28;20063;-77
2021/10/04 09:29:10;;;;;;;;;;;;;14.20;100676.00;;;;5068786;28;20048;-77
2021/10/04 09:31:43;;;;;;;13.15;2.00;;;;;14.20;100667.00;;;;5067477;28;19924;-76
2021/10/04 09:34:18;;;;;;;18.73;2.83;;;;;14.20;100675.00;;;;5066869;28;20068;-77
2021/10/04 09:36:50;;;;;;;16.90;2.20;;;;;14.20;100678.00;;;;5067080;28;20124;-78
2021/10/04 09:39:31;;;;;;;13.73;2.15;;;;;14.20;100670.00;;;;5067548;28;20173;-77
2021/10/04 09:42:18;;;;;;;17.08;2.92;;;;;14.20;100671.00;;;;5066894;28;20091;-77
2021/10/04 09:44:51;;;;;;;18.70;2.60;;;;;14.20;100663.00;;;;5067829;28;20040;-77
2021/10/04 09:47:32;;;;;;;13.65;1.95;;;;;14.20;100667.00;;;;5065827;28;20156;-78
2021/10/04 09:50:16;;;;;;;15.85;2.88;;;;;14.20;100670.00;;;;5067006;28;20074;-80
2021/10/04 09:52:53;;;;;;;10.77;1.98;;;;;14.20;100670.00;;;;5067376;28;20037;-77
2021/10/04 09:55:33;;;;;;;21.45;3.80;;;;;14.20;100649.00;;;;5066374;28;20044;-78
2021/10/04 09:58:20;;;;;;;17.17;2.45;;;;;14.20;100634.00;;;;5066572;28;20123;-78
2021/10/04 10:01:04;;;;;;;26.58;3.67;;;;;14.30;100641.00;;;;5065900;28;20049;-77
2021/10/04 10:03:40;;;;;;;22.27;3.17;;;;;14.40;100634.00;;;;5066460;28;20119;-77
2021/10/04 10:06:14;;;;;;;18.73;2.10;;;;;14.40;100628.00;;;;5066705;28;20036;-78
2021/10/04 10:08:44;;;;;;;16.58;2.25;;;;;14.40;100631.00;;;;5066327;28;20039;-77
2021/10/04 10:11:17;;;;;;;14.05;2.15;;;;;14.50;100622.00;;;;5066644;28;20048;-78
2021/10/04 10:13:48;;;;;;;12.98;2.72;;;;;14.50;100627.00;;;;5066850;28;20040;-77
2021/10/04 10:16:23;;;;;;;20.65;2.45;;;;;14.60;100637.00;;;;5066617;28;20507;-78
2021/10/04 10:18:53;;;;;;;25.30;3.22;;;;;14.70;100631.00;;;;5066904;28;20119;-76
2021/10/04 10:21:26;;;;;;;17.85;3.00;;;;;14.80;100631.00;;;;5066096;28;20477;-78
2021/10/04 10:24:07;;;;;;;14.43;1.70;;;;;14.80;100647.00;;;;5068636;28;20045;-76
2021/10/04 10:26:46;;;;;;;;;;;;;14.80;100661.00;;;;5086694;28;20063;-78
2021/10/04 10:29:20;;;;;;;13.85;2.63;;;;;14.70;100677.00;;;;5086828;28;19923;-77
2021/10/04 10:31:56;;;;;;;12.65;2.35;;;;;14.60;100670.00;;;;5086246;28;20036;-79
2021/10/04 10:34:35;;;;;;;16.67;2.22;;;;;14.50;100672.00;;;;5085479;28;20040;-78
2021/10/04 10:37:13;;;;;;;13.68;2.17;;;;;14.50;100663.00;;;;5082966;28;20051;-78
2021/10/04 10:39:43;;;;;;;14.43;1.85;;;;;14.50;100682.00;;;;5085513;28;20063;-79
2021/10/04 10:42:23;;;;;;;14.90;2.92;;;;;14.40;100696.00;;;;5085446;28;20067;-79
2021/10/04 10:44:59;;;;;;;19.27;2.67;;;;;14.40;100706.00;;;;5086646;28;20044;-78
2021/10/04 10:47:37;;;;;;;25.92;3.67;;;;;14.30;100731.00;;;;5085816;28;20398;-79
2021/10/04 10:50:10;;;;;;;16.80;2.65;;;;;14.20;100729.00;;;;5086141;28;20059;-78
2021/10/04 10:52:41;;;;;;;18.15;2.65;;;;;14.20;100727.00;;;;5085428;28;20036;-77
2021/10/04 10:55:20;;;;;;;16.90;4.18;;;;;14.20;100728.00;;;;5085067;28;20087;-80
2021/10/04 10:57:55;;;;;;;19.02;2.60;;;;;14.10;100723.00;;;;5086204;28;20044;-79
2021/10/04 11:00:32;;;;;;;18.52;2.70;;;;;14.10;100719.00;;;;5087019;28;20048;-78
2021/10/04 11:03:07;;;;;;;10.85;2.03;;;;;14.10;100718.00;;;;5086997;28;20040;-78
2021/10/04 11:05:43;;;;;;;23.25;2.80;;;;;14.00;100741.00;;;;5086594;28;20383;-80
2021/10/04 11:08:17;;;;;;;17.75;2.63;;;;;14.00;100744.00;;;;5085909;28;20052;-80
2021/10/04 11:10:51;;;;;;;17.83;4.85;;;;;14.00;100751.00;;;;5087960;28;20189;-77
2021/10/04 11:13:35;;;;;;;16.83;2.58;;;;;14.00;100760.00;;;;5090093;28;20048;-78
2021/10/04 11:16:11;;;;;;;14.10;2.30;;;;;14.00;100757.00;;;;5090205;28;20078;-77
2021/10/04 11:18:44;;;;;;;21.15;3.00;;;;;14.00;100782.00;;;;5090171;28;20071;-77
2021/10/04 11:21:26;;;;;;;17.50;3.58;;;;;14.00;100789.00;;;;5096235;28;20878;-75
2021/10/04 11:24:06;;;;;;;17.42;2.78;;;;;13.90;100777.00;;;;5108092;28;20047;-77
2021/10/04 11:26:39;;;;;;;22.27;4.65;;;;;14.00;100736.00;;;;5090436;28;20057;-77
2021/10/04 11:29:10;;;;;;;17.85;2.55;;;;;14.10;100745.00;;;;5089985;28;20040;-79
2021/10/04 11:31:44;;;;;;;20.63;2.85;;;;;14.10;100753.00;;;;5089782;28;20048;-80
2021/10/04 11:34:19;;;;;;;17.65;2.65;;;;;14.10;100756.00;;;;5087711;28;20139;-80
2021/10/04 11:36:53;;;;;;;12.88;2.47;;;;;14.20;100765.00;;;;5088107;28;20086;-81
2021/10/04 11:39:29;;;;;;;16.63;2.50;;;;;14.20;100770.00;;;;5089508;28;20098;-79
2021/10/04 11:42:04;;;;;;;20.63;3.90;;;;;14.20;100766.00;;;;5089357;28;20051;-79
2021/10/04 11:44:44;;;;;;;19.73;2.53;;;;;14.30;100764.00;;;;5090076;28;20052;-79
2021/10/04 11:47:15;;;;;;;19.83;2.78;;;;;14.50;100762.00;;;;5089448;28;20044;-79
2021/10/04 11:49:53;;;;;;;26.45;2.33;;;;;14.50;100772.00;;;;5089615;28;20067;-81
2021/10/04 11:52:32;;;;;;;18.00;2.38;;;;;14.50;100778.00;;;;5089457;28;20518;-83
2021/10/04 11:55:09;;;;;;;12.82;2.28;;;;;14.50;100792.00;;;;5089614;28;20040;-79
2021/10/04 11:57:41;;;;;;;14.00;2.33;;;;;14.50;100829.00;;;;5087582;28;20055;-79
2021/10/04 12:00:13;;;;;;;11.32;2.30;;;;;14.30;100828.00;;;;5089088;28;20040;-79
2021/10/04 12:02:50;;;;;;;16.95;1.80;;;;;14.30;100832.00;;;;5088647;28;20538;-80
2021/10/04 12:05:28;;;;;;;12.90;1.92;;;;;14.20;100851.00;;;;5088045;28;20044;-79
2021/10/04 12:08:11;;;;;;;16.77;2.45;;;;;14.10;100838.00;;;;5089396;28;20526;-79
2021/10/04 12:10:54;;;;;;;17.15;1.90;;;;;14.10;100794.00;;;;5089147;28;20040;-78
2021/10/04 12:13:28;;;;;;;21.65;3.17;;;;;14.30;100768.00;;;;5089633;28;20047;-77
2021/10/04 12:16:04;;;;;;;18.13;2.33;;;;;14.40;100784.00;;;;5089569;28;20529;-78
2021/10/04 12:18:45;;;;;;;7.97;2.03;;;;;14.30;100797.00;;;;5087573;28;20048;-79
2021/10/04 12:21:31;;;;;;;17.85;2.53;;;;;14.20;100814.00;;;;5088404;28;20044;-79